Terminal Aerodrome Forecast
Issued by NWS

Home | Current Version | Previous Version | Text Only | Print | Product List | Glossary On
Versions: 1 2 3 4 5 6 7 8 9 10 11 12 13 14
000
FTUS41 KBTV 272335
TAFSLK
TAF
KSLK 272335Z 2800/2824 24008KT P6SM SCT070
     FM280900 23006KT P6SM VCSH BKN040
     FM281200 23010G20KT P6SM VCSH BKN035
     FM281700 30012KT P6SM BKN035=

USA.gov is the U.S. government's official web portal to all federal, state and local government web resources and services.